createdAt,value
2022-12-14T00:01:32.047Z,10.60
2022-12-14T00:03:58.611Z,9.90
2022-12-14T00:06:30.188Z,11.17
2022-12-14T00:08:59.371Z,10.07
2022-12-14T00:11:26.232Z,10.17
2022-12-14T00:13:55.116Z,10.37
2022-12-14T00:16:23.950Z,10.20
2022-12-14T00:18:52.818Z,9.33
2022-12-14T00:21:20.819Z,9.83
2022-12-14T00:23:48.458Z,9.83
2022-12-14T00:26:20.812Z,9.97
2022-12-14T00:28:52.210Z,10.13
2022-12-14T00:31:19.217Z,8.93
2022-12-14T00:33:46.104Z,10.43
2022-12-14T00:36:13.145Z,11.07
2022-12-14T00:38:40.579Z,9.90
2022-12-14T00:41:08.453Z,9.80
2022-12-14T00:43:35.657Z,9.40
2022-12-14T00:46:02.351Z,10.17
2022-12-14T00:48:30.093Z,9.27
2022-12-14T00:50:57.711Z,9.87
2022-12-14T00:53:25.443Z,9.43
2022-12-14T00:55:52.507Z,9.73
2022-12-14T00:58:23.056Z,8.83
2022-12-14T01:01:00.308Z,10.13
2022-12-14T01:03:27.281Z,10.23
2022-12-14T01:05:56.571Z,10.53
2022-12-14T01:08:24.156Z,9.37
2022-12-14T01:10:51.934Z,9.73
2022-12-14T01:13:18.713Z,9.33
2022-12-14T01:15:45.437Z,8.93
2022-12-14T01:18:14.448Z,10.00
2022-12-14T01:20:40.975Z,7.63
2022-12-14T01:23:09.849Z,9.10
2022-12-14T01:25:36.425Z,9.33
2022-12-14T01:28:05.175Z,9.27
2022-12-14T01:30:31.765Z,10.03
2022-12-14T01:32:58.302Z,9.00
2022-12-14T01:35:24.965Z,9.57
2022-12-14T01:37:54.015Z,9.17
2022-12-14T01:40:20.548Z,8.97
2022-12-14T01:42:49.365Z,8.93
2022-12-14T01:45:21.817Z,8.80
2022-12-14T01:47:56.781Z,9.77
2022-12-14T01:50:29.463Z,9.40
2022-12-14T01:53:05.861Z,9.40
2022-12-14T01:55:38.467Z,9.00
2022-12-14T01:58:13.952Z,9.70
2022-12-14T02:00:41.277Z,8.10
2022-12-14T02:03:20.517Z,8.67
2022-12-14T02:05:52.341Z,8.37
2022-12-14T02:08:21.183Z,9.17
2022-12-14T02:10:50.342Z,8.40
2022-12-14T02:13:28.271Z,8.73
2022-12-14T02:15:55.105Z,7.70
2022-12-14T02:18:23.754Z,7.80
2022-12-14T02:21:08.282Z,8.57
2022-12-14T02:24:02.492Z,8.10
2022-12-14T02:26:58.013Z,8.97
2022-12-14T02:29:55.724Z,8.07
2022-12-14T02:32:28.069Z,7.97
2022-12-14T02:35:10.639Z,8.03
2022-12-14T02:38:06.678Z,8.40
2022-12-14T02:40:48.624Z,7.57
2022-12-14T02:43:30.685Z,8.67
2022-12-14T02:46:15.875Z,8.73
2022-12-14T02:49:06.172Z,7.70
2022-12-14T02:51:47.923Z,8.37
2022-12-14T02:54:31.861Z,8.17
2022-12-14T02:57:14.351Z,7.37
2022-12-14T02:59:43.884Z,9.20
2022-12-14T03:02:12.438Z,7.73
2022-12-14T03:04:47.637Z,8.90
2022-12-14T03:07:48.905Z,8.20
2022-12-14T03:10:30.766Z,7.37
2022-12-14T03:13:05.476Z,7.83
2022-12-14T03:15:33.748Z,8.03
2022-12-14T03:18:05.920Z,7.10
2022-12-14T03:20:38.092Z,8.27
2022-12-14T03:23:12.483Z,8.00
2022-12-14T03:25:50.753Z,8.10
2022-12-14T03:28:30.540Z,7.80
2022-12-14T03:31:06.819Z,7.97
2022-12-14T03:33:36.850Z,8.07
2022-12-14T03:36:19.099Z,8.63
2022-12-14T03:38:55.506Z,7.80
2022-12-14T03:41:31.044Z,8.33
2022-12-14T03:44:18.810Z,8.40
2022-12-14T03:47:02.532Z,8.13
2022-12-14T03:50:12.430Z,7.00
2022-12-14T03:53:00.547Z,8.13
2022-12-14T03:55:43.066Z,7.90
2022-12-14T03:58:18.651Z,7.77
2022-12-14T04:01:08.356Z,7.97
2022-12-14T04:03:59.000Z,7.87
2022-12-14T04:06:54.685Z,7.67
2022-12-14T04:09:23.844Z,8.07
2022-12-14T04:12:33.173Z,7.50
2022-12-14T04:15:28.252Z,7.90
2022-12-14T04:18:18.200Z,8.03
2022-12-14T04:20:54.604Z,8.17
2022-12-14T04:24:18.590Z,7.40
2022-12-14T04:27:04.461Z,6.70
2022-12-14T04:29:52.264Z,8.27
2022-12-14T04:32:25.630Z,7.43
2022-12-14T04:35:02.740Z,7.87
2022-12-14T04:37:31.643Z,7.77
2022-12-14T04:40:05.484Z,7.50
2022-12-14T04:42:41.690Z,8.60
2022-12-14T04:45:21.988Z,7.47
2022-12-14T04:48:00.477Z,8.80
2022-12-14T04:50:36.505Z,8.33
2022-12-14T04:53:15.518Z,7.10
2022-12-14T04:56:00.775Z,7.17
2022-12-14T04:58:30.010Z,8.20
2022-12-14T05:01:05.538Z,7.33
2022-12-14T05:03:36.148Z,8.03
2022-12-14T05:06:17.244Z,7.43
2022-12-14T05:08:55.931Z,8.00
2022-12-14T05:14:36.656Z,6.77
2022-12-14T05:17:08.884Z,7.20
2022-12-14T05:19:36.732Z,8.23
2022-12-14T05:22:08.129Z,8.80
2022-12-14T05:24:34.784Z,7.27
2022-12-14T05:27:01.324Z,7.20
2022-12-14T05:29:27.918Z,7.37
2022-12-14T05:31:56.883Z,7.50
2022-12-14T05:34:23.492Z,7.57
2022-12-14T05:36:50.031Z,7.37
2022-12-14T05:39:16.688Z,7.57
2022-12-14T05:41:43.504Z,7.70
2022-12-14T05:44:12.475Z,7.53
2022-12-14T05:46:39.053Z,7.60
2022-12-14T05:49:05.755Z,7.57
2022-12-14T05:51:32.289Z,7.37
2022-12-14T05:54:01.413Z,6.90
2022-12-14T05:56:27.998Z,6.83
2022-12-14T05:58:54.572Z,7.70
2022-12-14T06:01:21.166Z,8.30
2022-12-14T06:03:47.756Z,9.13
2022-12-14T06:06:14.874Z,7.13
2022-12-14T06:08:44.804Z,7.73
2022-12-14T06:11:16.120Z,8.57
2022-12-14T06:13:43.457Z,8.47
2022-12-14T06:16:15.827Z,7.93
2022-12-14T06:18:43.669Z,8.13
2022-12-14T06:21:10.601Z,8.57
2022-12-14T06:23:37.080Z,8.80
2022-12-14T06:26:03.810Z,7.67
2022-12-14T06:28:30.371Z,7.97
2022-12-14T06:30:56.941Z,7.93
2022-12-14T06:33:23.596Z,7.20
2022-12-14T06:35:52.394Z,8.00
2022-12-14T06:38:20.337Z,8.40
2022-12-14T06:40:49.155Z,7.20
2022-12-14T06:43:15.692Z,7.50
2022-12-14T06:45:42.285Z,7.43
2022-12-14T06:48:09.020Z,7.40
2022-12-14T06:50:38.269Z,7.60
2022-12-14T06:53:04.769Z,7.13
2022-12-14T06:55:31.409Z,7.13
2022-12-14T06:57:57.954Z,8.13
2022-12-14T07:00:25.377Z,7.97
2022-12-14T07:02:52.287Z,7.70
2022-12-14T07:05:18.928Z,8.33
2022-12-14T07:07:45.434Z,8.37
2022-12-14T07:10:12.929Z,7.83
2022-12-14T07:12:44.277Z,8.10
2022-12-14T07:15:11.323Z,8.10
2022-12-14T07:17:38.093Z,8.53
2022-12-14T07:20:06.913Z,8.37
2022-12-14T07:22:34.960Z,7.37
2022-12-14T07:25:01.759Z,9.07
2022-12-14T07:27:30.637Z,8.50
2022-12-14T07:29:57.162Z,7.93
2022-12-14T07:32:23.873Z,7.83
2022-12-14T07:34:50.602Z,8.23
2022-12-14T07:37:17.420Z,7.37
2022-12-14T07:39:43.925Z,11.68
2022-12-14T07:42:10.686Z,13.13
2022-12-14T07:44:37.289Z,12.35
2022-12-14T07:47:03.915Z,9.77
2022-12-14T07:49:30.579Z,8.73
2022-12-14T07:51:57.173Z,8.90
2022-12-14T07:54:26.454Z,8.77
2022-12-14T07:56:53.015Z,8.20
2022-12-14T07:59:23.334Z,8.70
2022-12-14T08:01:52.076Z,12.82
2022-12-14T08:04:20.282Z,9.90
2022-12-14T08:06:48.135Z,8.73
2022-12-14T08:09:15.707Z,8.80
2022-12-14T08:11:44.744Z,9.10
2022-12-14T08:14:17.347Z,7.57
2022-12-14T08:16:44.832Z,8.00
2022-12-14T08:19:14.936Z,8.33
2022-12-14T08:21:42.290Z,7.57
2022-12-14T08:24:11.494Z,7.43
2022-12-14T08:26:38.204Z,8.37
2022-12-14T08:29:07.670Z,8.40
2022-12-14T08:31:36.600Z,8.00
2022-12-14T08:34:03.350Z,7.83
2022-12-14T08:36:32.886Z,8.87
2022-12-14T08:39:06.099Z,8.20
2022-12-14T08:41:33.263Z,8.87
2022-12-14T08:44:01.790Z,8.30
2022-12-14T08:46:29.556Z,7.67
2022-12-14T08:48:56.953Z,9.00
2022-12-14T08:51:25.846Z,8.30
2022-12-14T08:53:55.530Z,8.33
2022-12-14T08:56:29.846Z,8.20
2022-12-14T08:58:57.175Z,8.03
2022-12-14T09:01:34.336Z,7.67
2022-12-14T09:04:05.021Z,7.47
2022-12-14T09:06:33.985Z,7.47
2022-12-14T09:09:00.661Z,7.97
2022-12-14T09:11:27.595Z,9.50
2022-12-14T09:13:54.372Z,9.03
2022-12-14T09:16:22.637Z,8.57
2022-12-14T09:18:50.413Z,8.67
2022-12-14T09:21:20.034Z,8.00
2022-12-14T09:23:51.398Z,8.43
2022-12-14T09:26:25.992Z,8.57
2022-12-14T09:28:55.128Z,8.70
2022-12-14T09:31:25.821Z,8.87
2022-12-14T09:33:52.700Z,7.87
2022-12-14T09:36:22.224Z,8.67
2022-12-14T09:38:52.813Z,8.13
2022-12-14T09:41:34.418Z,9.63
2022-12-14T09:44:32.736Z,9.10
2022-12-14T09:47:29.934Z,7.60
2022-12-14T09:50:07.101Z,8.90
2022-12-14T09:52:52.858Z,7.83
2022-12-14T09:55:33.720Z,7.73
2022-12-14T09:58:06.420Z,8.23
2022-12-14T10:00:38.279Z,7.27
2022-12-14T10:03:24.889Z,8.70
2022-12-14T10:06:26.687Z,11.13
2022-12-14T10:09:31.523Z,11.27
2022-12-14T10:12:10.934Z,8.77
2022-12-14T10:14:50.107Z,9.00
2022-12-14T10:17:25.064Z,7.80
2022-12-14T10:19:57.534Z,8.43
2022-12-14T10:22:34.943Z,7.73
2022-12-14T10:25:14.626Z,8.07
2022-12-14T10:28:09.820Z,7.40
2022-12-14T10:30:32.155Z,7.90
2022-12-14T10:33:16.555Z,6.87
2022-12-14T10:35:55.104Z,6.07
2022-12-14T10:38:35.407Z,7.13
2022-12-14T10:41:30.276Z,7.03
2022-12-14T10:44:19.703Z,6.93
2022-12-14T10:47:05.041Z,6.93
2022-12-14T10:49:43.669Z,8.70
2022-12-14T10:52:20.353Z,7.17
2022-12-14T10:55:00.988Z,6.53
2022-12-14T10:57:28.213Z,6.60
2022-12-14T11:00:08.408Z,7.33
2022-12-14T11:02:41.795Z,6.80
2022-12-14T11:05:36.839Z,6.93
2022-12-14T11:08:07.569Z,6.90
2022-12-14T11:10:36.254Z,7.17
2022-12-14T11:13:07.212Z,6.67
2022-12-14T11:15:43.704Z,7.47
2022-12-14T11:18:16.541Z,6.40
2022-12-14T11:20:58.682Z,7.47
2022-12-14T11:23:38.714Z,7.07
2022-12-14T11:26:12.386Z,6.10
2022-12-14T11:28:57.191Z,6.57
2022-12-14T11:31:25.888Z,6.80
2022-12-14T11:33:55.586Z,6.83
2022-12-14T11:36:24.856Z,6.93
2022-12-14T11:39:01.691Z,7.47
2022-12-14T11:41:42.329Z,6.93
2022-12-14T11:44:15.639Z,7.23
2022-12-14T11:46:48.486Z,6.47
2022-12-14T11:49:25.642Z,6.73
2022-12-14T11:52:04.426Z,7.50
2022-12-14T11:54:36.140Z,8.65
2022-12-14T11:57:10.569Z,7.20
2022-12-14T12:00:00.105Z,7.70
2022-12-14T12:02:34.698Z,7.00
2022-12-14T12:05:13.540Z,6.50
2022-12-14T12:07:50.687Z,6.70
2022-12-14T12:10:50.589Z,8.20
2022-12-14T12:13:25.554Z,6.47
2022-12-14T12:16:00.563Z,8.75
2022-12-14T12:18:50.487Z,6.73
2022-12-14T12:21:30.762Z,7.40
2022-12-14T12:24:16.314Z,8.80
2022-12-14T12:26:53.138Z,7.50
2022-12-14T12:29:19.608Z,7.27
2022-12-14T12:31:59.117Z,6.37
2022-12-14T12:34:54.896Z,6.53
2022-12-14T12:37:35.186Z,6.50
2022-12-14T12:40:26.432Z,6.20
2022-12-14T12:43:02.273Z,6.57
2022-12-14T12:45:44.280Z,5.90
2022-12-14T12:48:23.981Z,6.80
2022-12-14T12:50:55.312Z,6.90
2022-12-14T12:53:37.672Z,6.03
2022-12-14T12:56:08.541Z,6.17
2022-12-14T12:58:37.415Z,6.93
2022-12-14T13:01:39.484Z,7.20
2022-12-14T13:04:12.670Z,6.17
2022-12-14T13:06:50.731Z,6.73
2022-12-14T13:09:42.230Z,5.73
2022-12-14T13:12:34.607Z,5.97
2022-12-14T13:15:07.049Z,6.93
2022-12-14T13:17:35.955Z,6.23
2022-12-14T13:20:06.893Z,6.10
2022-12-14T13:22:36.330Z,6.70
2022-12-14T13:25:13.733Z,6.60
2022-12-14T13:27:49.561Z,6.03
2022-12-14T13:31:07.290Z,6.37
2022-12-14T13:33:52.238Z,6.50
2022-12-14T13:36:30.522Z,7.13
2022-12-14T13:39:25.110Z,6.07
2022-12-14T13:42:05.861Z,6.23
2022-12-14T13:44:45.037Z,7.30
2022-12-14T13:47:26.168Z,9.30
2022-12-14T13:50:34.268Z,7.47
2022-12-14T13:52:49.070Z,11.87
2022-12-14T13:55:31.896Z,7.50
2022-12-14T13:58:13.692Z,9.57
2022-12-14T14:00:49.296Z,7.47
2022-12-14T14:03:34.560Z,7.13
2022-12-14T14:06:16.276Z,13.93
2022-12-14T14:08:44.401Z,10.00
2022-12-14T14:11:39.237Z,9.00
2022-12-14T14:14:18.302Z,8.00
2022-12-14T14:16:49.582Z,7.43
2022-12-14T14:19:23.224Z,7.27
2022-12-14T14:22:24.935Z,6.93
2022-12-14T14:25:22.527Z,6.00
2022-12-14T14:27:52.285Z,6.50
2022-12-14T14:30:27.775Z,6.73
2022-12-14T14:33:19.998Z,7.47
2022-12-14T14:35:44.920Z,11.47
2022-12-14T14:38:27.872Z,8.63
2022-12-14T14:41:18.009Z,7.10
2022-12-14T14:43:55.943Z,6.10
2022-12-14T14:46:34.848Z,5.33
2022-12-14T14:49:01.630Z,4.73
2022-12-14T14:51:32.640Z,9.93
2022-12-14T14:54:46.216Z,7.40
2022-12-14T14:57:35.292Z,7.63
2022-12-14T15:00:06.417Z,6.20
2022-12-14T15:02:43.072Z,6.33
2022-12-14T15:08:19.712Z,5.87
2022-12-14T15:10:50.052Z,9.37
2022-12-14T15:13:31.391Z,7.23
2022-12-14T15:15:58.291Z,5.67
2022-12-14T15:18:24.884Z,6.17
2022-12-14T15:20:54.231Z,6.10
2022-12-14T15:23:23.398Z,5.57
2022-12-14T15:25:59.305Z,5.53
2022-12-14T15:28:27.013Z,4.60
2022-12-14T15:30:55.112Z,5.40
2022-12-14T15:33:38.628Z,5.90
2022-12-14T15:36:14.570Z,5.47
2022-12-14T15:38:51.734Z,5.57
2022-12-14T15:41:19.169Z,5.27
2022-12-14T15:43:49.005Z,5.97
2022-12-14T15:46:38.585Z,6.07
2022-12-14T15:49:10.618Z,6.57
2022-12-14T15:51:43.604Z,6.93
2022-12-14T15:54:20.794Z,7.30
2022-12-14T15:56:51.177Z,8.97
2022-12-14T15:59:23.988Z,10.20
2022-12-14T16:02:04.820Z,11.13
2022-12-14T16:04:33.518Z,9.17
2022-12-14T16:07:09.387Z,9.63
2022-12-14T16:09:43.813Z,9.17
2022-12-14T16:12:19.650Z,8.73
2022-12-14T16:14:54.207Z,7.80
2022-12-14T16:17:26.857Z,8.20
2022-12-14T16:20:23.975Z,7.83
2022-12-14T16:23:15.318Z,7.57
2022-12-14T16:25:55.970Z,8.13
2022-12-14T16:28:28.515Z,7.30
2022-12-14T16:31:00.348Z,8.30
2022-12-14T16:33:29.667Z,8.70
2022-12-14T16:36:04.448Z,7.53
2022-12-14T16:38:32.965Z,8.43
2022-12-14T16:41:02.310Z,8.37
2022-12-14T16:43:36.709Z,9.67
2022-12-14T16:46:03.248Z,8.77
2022-12-14T16:48:37.048Z,8.37
2022-12-14T16:51:28.309Z,8.77
2022-12-14T16:54:21.133Z,9.33
2022-12-14T16:57:00.891Z,8.63
2022-12-14T16:59:35.942Z,9.10
2022-12-14T17:02:03.427Z,8.80
2022-12-14T17:04:37.510Z,8.40
2022-12-14T17:07:04.578Z,9.97
2022-12-14T17:09:36.615Z,8.83
2022-12-14T17:12:13.567Z,9.03
2022-12-14T17:14:43.496Z,10.37
2022-12-14T17:17:22.477Z,10.40
2022-12-14T17:19:49.329Z,10.23
2022-12-14T17:22:26.666Z,10.73
2022-12-14T17:24:53.982Z,9.40
2022-12-14T17:27:22.233Z,10.83
2022-12-14T17:29:49.805Z,9.67
2022-12-14T17:32:17.769Z,10.73
2022-12-14T17:34:46.143Z,10.10
2022-12-14T17:37:20.931Z,10.73
2022-12-14T17:39:47.626Z,10.23
2022-12-14T17:42:16.805Z,10.60
2022-12-14T17:44:47.957Z,10.17
2022-12-14T17:47:14.684Z,10.60
2022-12-14T17:49:43.006Z,9.80
2022-12-14T17:52:26.775Z,10.10
2022-12-14T17:54:53.445Z,10.53
2022-12-14T17:57:22.749Z,10.40
2022-12-14T18:00:11.023Z,10.03
2022-12-14T18:02:44.623Z,10.70
2022-12-14T18:05:19.221Z,10.33
2022-12-14T18:07:49.621Z,10.73
2022-12-14T18:10:20.075Z,11.53
2022-12-14T18:12:49.382Z,11.73
2022-12-14T18:15:24.409Z,11.70
2022-12-14T18:17:53.151Z,11.77
2022-12-14T18:20:22.799Z,11.73
2022-12-14T18:22:50.227Z,11.77
2022-12-14T18:25:33.830Z,12.00
2022-12-14T18:28:05.930Z,12.70
2022-12-14T18:30:40.583Z,11.67
2022-12-14T18:33:16.722Z,11.97
2022-12-14T18:35:45.027Z,12.77
2022-12-14T18:38:11.957Z,12.50
2022-12-14T18:40:39.777Z,12.57
2022-12-14T18:43:15.593Z,12.67
2022-12-14T18:45:42.229Z,12.73
2022-12-14T18:48:08.755Z,14.97
2022-12-14T18:50:39.539Z,12.97
2022-12-14T18:53:17.111Z,13.83
2022-12-14T18:55:43.759Z,13.07
2022-12-14T18:58:17.227Z,13.20
2022-12-14T19:00:45.070Z,13.07
2022-12-14T19:03:12.011Z,13.80
2022-12-14T19:05:38.643Z,12.77
2022-12-14T19:08:05.286Z,13.63
2022-12-14T19:10:41.885Z,14.27
2022-12-14T19:13:14.690Z,14.10
2022-12-14T19:15:41.625Z,14.07
2022-12-14T19:18:10.916Z,15.20
2022-12-14T19:20:37.503Z,13.77
2022-12-14T19:23:04.321Z,14.47
2022-12-14T19:25:33.129Z,13.67
2022-12-14T19:30:48.082Z,15.03
2022-12-14T19:33:14.822Z,14.70
2022-12-14T19:35:42.322Z,14.70
2022-12-14T19:38:14.586Z,15.23
2022-12-14T19:40:46.197Z,14.67
2022-12-14T19:43:13.693Z,15.90
2022-12-14T19:45:40.276Z,15.07
2022-12-14T19:48:12.776Z,16.57
2022-12-14T19:50:39.893Z,13.87
2022-12-14T19:53:06.582Z,15.93
2022-12-14T19:55:34.682Z,16.50
2022-12-14T19:58:01.293Z,16.93
2022-12-14T20:00:27.997Z,16.70
2022-12-14T20:02:57.365Z,15.43
2022-12-14T20:05:23.990Z,15.80
2022-12-14T20:07:50.489Z,15.90
2022-12-14T20:10:17.028Z,16.17
2022-12-14T20:12:45.780Z,16.47
2022-12-14T20:15:13.038Z,16.00
2022-12-14T20:17:39.745Z,15.60
2022-12-14T20:20:06.883Z,15.27
2022-12-14T20:22:33.495Z,15.13
2022-12-14T20:25:00.713Z,16.00
2022-12-14T20:27:27.307Z,14.47
2022-12-14T20:29:53.883Z,15.63
2022-12-14T20:32:20.441Z,15.47
2022-12-14T20:34:47.022Z,15.80
2022-12-14T20:37:15.800Z,14.10
2022-12-14T20:39:42.325Z,15.13
2022-12-14T20:42:11.083Z,15.30
2022-12-14T20:44:37.646Z,14.67
2022-12-14T20:47:04.409Z,14.73
2022-12-14T20:49:34.009Z,13.33
2022-12-14T20:52:05.038Z,15.07
2022-12-14T20:54:31.893Z,14.23
2022-12-14T20:56:58.755Z,14.80
2022-12-14T20:59:25.421Z,15.53
2022-12-14T21:01:56.109Z,14.93
2022-12-14T21:04:23.534Z,14.90
2022-12-14T21:06:50.293Z,14.27
2022-12-14T21:09:16.820Z,15.37
2022-12-14T21:12:07.270Z,15.57
2022-12-14T21:14:36.839Z,14.43
2022-12-14T21:17:06.613Z,15.80
2022-12-14T21:19:36.740Z,15.53
2022-12-14T21:22:08.076Z,15.53
2022-12-14T21:25:01.683Z,15.47
2022-12-14T21:27:30.238Z,15.10
2022-12-14T21:29:56.733Z,15.00
2022-12-14T21:32:23.746Z,13.47
2022-12-14T21:34:50.330Z,15.93
2022-12-14T21:37:20.406Z,15.33
2022-12-14T21:39:53.900Z,15.40
2022-12-14T21:42:25.941Z,15.17
2022-12-14T21:44:53.739Z,15.57
2022-12-14T21:47:26.372Z,14.80
2022-12-14T21:49:53.216Z,14.23
2022-12-14T21:52:25.715Z,15.93
2022-12-14T21:54:52.466Z,16.80
2022-12-14T21:57:40.574Z,16.13
2022-12-14T22:00:09.016Z,15.13
2022-12-14T22:02:35.830Z,15.53
2022-12-14T22:05:04.895Z,16.70
2022-12-14T22:07:34.600Z,15.07
2022-12-14T22:10:01.458Z,14.87
2022-12-14T22:12:30.309Z,14.13
2022-12-14T22:14:59.142Z,15.23
2022-12-14T22:17:25.756Z,14.70
2022-12-14T22:19:55.363Z,14.67
2022-12-14T22:22:22.715Z,14.73
2022-12-14T22:24:51.036Z,15.67
2022-12-14T22:27:18.604Z,14.27
2022-12-14T22:29:45.300Z,14.33
2022-12-14T22:32:12.801Z,14.23
2022-12-14T22:34:39.544Z,15.00
2022-12-14T22:37:08.442Z,14.90
2022-12-14T22:39:37.340Z,15.23
2022-12-14T22:42:04.120Z,14.60
2022-12-14T22:44:32.886Z,14.83
2022-12-14T22:46:59.489Z,14.50
2022-12-14T22:49:26.045Z,13.93
2022-12-14T22:51:56.460Z,13.93
2022-12-14T22:54:25.601Z,14.17
2022-12-14T22:57:02.578Z,14.77
2022-12-14T22:59:58.621Z,14.10
2022-12-14T23:02:26.016Z,13.70
2022-12-14T23:04:52.802Z,14.57
2022-12-14T23:07:19.342Z,14.43
2022-12-14T23:10:04.547Z,14.97
2022-12-14T23:12:52.033Z,15.17
2022-12-14T23:15:37.447Z,13.83
2022-12-14T23:18:26.434Z,14.00
2022-12-14T23:21:12.384Z,15.07
2022-12-14T23:24:03.283Z,13.47
2022-12-14T23:26:49.703Z,13.83
2022-12-14T23:29:34.594Z,13.70
2022-12-14T23:32:19.856Z,14.77
2022-12-14T23:35:04.963Z,13.33
2022-12-14T23:37:50.012Z,13.80
2022-12-14T23:40:37.425Z,13.87
2022-12-14T23:43:33.977Z,15.17
2022-12-14T23:46:20.153Z,13.63
2022-12-14T23:49:07.185Z,13.97
2022-12-14T23:51:55.570Z,14.17
2022-12-14T23:54:40.595Z,13.67
2022-12-14T23:57:26.224Z,12.77
